sensor_id;sensor_type;location;lat;lon;timestamp;pressure;altitude;pressure_sealevel;temperature;humidity
15932;BME280;8065;49.520;11.284;2024-02-23T00:00:08;95242.25;;;13.26;76.86
15932;BME280;8065;49.520;11.284;2024-02-23T00:02:36;95243.78;;;13.24;76.03
15932;BME280;8065;49.520;11.284;2024-02-23T00:05:05;95264.75;;;13.14;75.08
15932;BME280;8065;49.520;11.284;2024-02-23T00:07:34;95256.03;;;13.07;74.56
15932;BME280;8065;49.520;11.284;2024-02-23T00:10:02;95256.75;;;13.18;74.54
15932;BME280;8065;49.520;11.284;2024-02-23T00:12:31;95270.44;;;13.27;74.53
15932;BME280;8065;49.520;11.284;2024-02-23T00:15:02;95275.72;;;13.34;74.38
15932;BME280;8065;49.520;11.284;2024-02-23T00:17:30;95273.81;;;13.35;74.48
15932;BME280;8065;49.520;11.284;2024-02-23T00:22:26;95294.44;;;13.27;73.88
15932;BME280;8065;49.520;11.284;2024-02-23T00:24:54;95281.91;;;13.17;70.86
15932;BME280;8065;49.520;11.284;2024-02-23T00:27:22;95283.84;;;13.02;68.93
15932;BME280;8065;49.520;11.284;2024-02-23T00:29:51;95293.84;;;12.84;68.63
15932;BME280;8065;49.520;11.284;2024-02-23T00:32:22;95274.75;;;12.96;68.02
15932;BME280;8065;49.520;11.284;2024-02-23T00:34:50;95279.63;;;13.12;68.40
15932;BME280;8065;49.520;11.284;2024-02-23T00:37:18;95286.19;;;12.97;66.75
15932;BME280;8065;49.520;11.284;2024-02-23T00:39:47;95296.00;;;13.10;68.63
15932;BME280;8065;49.520;11.284;2024-02-23T00:42:15;95299.41;;;13.14;69.29
15932;BME280;8065;49.520;11.284;2024-02-23T00:44:43;95325.72;;;13.20;69.36
15932;BME280;8065;49.520;11.284;2024-02-23T00:47:11;95339.13;;;12.98;68.93
15932;BME280;8065;49.520;11.284;2024-02-23T00:49:42;95341.41;;;13.00;68.83
15932;BME280;8065;49.520;11.284;2024-02-23T00:52:11;95352.09;;;12.86;67.85
15932;BME280;8065;49.520;11.284;2024-02-23T00:54:39;95370.00;;;12.78;67.33
15932;BME280;8065;49.520;11.284;2024-02-23T00:57:07;95365.06;;;12.62;67.53
15932;BME280;8065;49.520;11.284;2024-02-23T00:59:36;95365.06;;;12.59;66.29
15932;BME280;8065;49.520;11.284;2024-02-23T01:02:05;95374.19;;;12.83;66.00
15932;BME280;8065;49.520;11.284;2024-02-23T01:04:33;95386.38;;;12.55;65.90
15932;BME280;8065;49.520;11.284;2024-02-23T01:07:04;95378.38;;;12.69;65.08
15932;BME280;8065;49.520;11.284;2024-02-23T01:09:32;95362.78;;;12.71;64.68
15932;BME280;8065;49.520;11.284;2024-02-23T01:12:01;95349.09;;;12.41;64.57
15932;BME280;8065;49.520;11.284;2024-02-23T01:14:29;95359.75;;;12.37;63.92
15932;BME280;8065;49.520;11.284;2024-02-23T01:16:57;95358.22;;;12.47;63.57
15932;BME280;8065;49.520;11.284;2024-02-23T01:19:25;95371.16;;;12.45;63.61
15932;BME280;8065;49.520;11.284;2024-02-23T01:21:54;95397.81;;;12.52;63.83
15932;BME280;8065;49.520;11.284;2024-02-23T01:24:27;95394.38;;;12.55;63.88
15932;BME280;8065;49.520;11.284;2024-02-23T01:26:56;95406.19;;;12.47;64.06
15932;BME280;8065;49.520;11.284;2024-02-23T01:29:25;95407.69;;;12.12;63.23
15932;BME280;8065;49.520;11.284;2024-02-23T01:31:54;95389.41;;;12.22;63.59
15932;BME280;8065;49.520;11.284;2024-02-23T01:34:22;95392.47;;;12.13;63.82
15932;BME280;8065;49.520;11.284;2024-02-23T01:36:50;95405.38;;;12.14;63.84
15932;BME280;8065;49.520;11.284;2024-02-23T01:39:19;95408.84;;;12.11;64.44
15932;BME280;8065;49.520;11.284;2024-02-23T01:41:49;95427.44;;;12.19;63.91
15932;BME280;8065;49.520;11.284;2024-02-23T01:44:20;95425.19;;;12.10;64.07
15932;BME280;8065;49.520;11.284;2024-02-23T01:46:49;95416.41;;;12.17;64.50
15932;BME280;8065;49.520;11.284;2024-02-23T01:49:18;95430.44;;;11.85;64.88
15932;BME280;8065;49.520;11.284;2024-02-23T01:51:55;95425.13;;;11.92;64.76
15932;BME280;8065;49.520;11.284;2024-02-23T01:54:24;95438.44;;;11.85;64.52
15932;BME280;8065;49.520;11.284;2024-02-23T01:56:56;95440.34;;;11.88;64.15
15932;BME280;8065;49.520;11.284;2024-02-23T01:59:26;95436.50;;;11.78;64.09
15932;BME280;8065;49.520;11.284;2024-02-23T02:01:55;95426.56;;;11.72;64.46
15932;BME280;8065;49.520;11.284;2024-02-23T02:04:23;95451.59;;;11.57;64.54
15932;BME280;8065;49.520;11.284;2024-02-23T02:06:52;95441.34;;;11.62;64.71
15932;BME280;8065;49.520;11.284;2024-02-23T02:09:20;95450.84;;;11.63;64.42
15932;BME280;8065;49.520;11.284;2024-02-23T02:11:49;95444.03;;;11.66;64.75
15932;BME280;8065;49.520;11.284;2024-02-23T02:14:20;95459.19;;;11.55;64.91
15932;BME280;8065;49.520;11.284;2024-02-23T02:16:48;95454.63;;;11.55;65.08
15932;BME280;8065;49.520;11.284;2024-02-23T02:19:16;95466.31;;;11.40;65.36
15932;BME280;8065;49.520;11.284;2024-02-23T02:21:44;95456.84;;;11.46;65.65
15932;BME280;8065;49.520;11.284;2024-02-23T02:24:13;95467.50;;;11.49;65.61
15932;BME280;8065;49.520;11.284;2024-02-23T02:26:41;95477.44;;;11.56;65.88
15932;BME280;8065;49.520;11.284;2024-02-23T02:29:11;95488.03;;;11.53;65.63
15932;BME280;8065;49.520;11.284;2024-02-23T02:31:44;95503.56;;;11.43;65.96
15932;BME280;8065;49.520;11.284;2024-02-23T02:34:12;95515.25;;;11.21;66.77
15932;BME280;8065;49.520;11.284;2024-02-23T02:36:41;95499.31;;;11.25;66.83
15932;BME280;8065;49.520;11.284;2024-02-23T02:39:09;95489.53;;;11.46;66.27
15932;BME280;8065;49.520;11.284;2024-02-23T02:41:37;95499.44;;;11.49;66.68
15932;BME280;8065;49.520;11.284;2024-02-23T02:44:05;95509.94;;;11.28;66.35
15932;BME280;8065;49.520;11.284;2024-02-23T02:46:35;95521.00;;;11.34;66.38
15932;BME280;8065;49.520;11.284;2024-02-23T02:49:05;95525.88;;;11.21;66.47
15932;BME280;8065;49.520;11.284;2024-02-23T02:51:34;95525.88;;;11.28;66.22
15932;BME280;8065;49.520;11.284;2024-02-23T02:54:02;95525.94;;;11.35;66.13
15932;BME280;8065;49.520;11.284;2024-02-23T02:56:30;95534.97;;;11.20;66.58
15932;BME280;8065;49.520;11.284;2024-02-23T02:58:59;95535.03;;;11.31;66.71
15932;BME280;8065;49.520;11.284;2024-02-23T03:01:27;95546.00;;;11.22;66.92
15932;BME280;8065;49.520;11.284;2024-02-23T03:03:55;95547.91;;;11.22;66.57
15932;BME280;8065;49.520;11.284;2024-02-23T03:06:26;95542.56;;;11.18;66.82
15932;BME280;8065;49.520;11.284;2024-02-23T03:08:55;95536.81;;;11.12;66.83
15932;BME280;8065;49.520;11.284;2024-02-23T03:11:23;95535.78;;;11.31;66.48
15932;BME280;8065;49.520;11.284;2024-02-23T03:13:51;95540.31;;;11.24;66.61
15932;BME280;8065;49.520;11.284;2024-02-23T03:16:20;95542.59;;;11.25;66.71
15932;BME280;8065;49.520;11.284;2024-02-23T03:18:51;95554.78;;;11.26;67.09
15932;BME280;8065;49.520;11.284;2024-02-23T03:21:19;95553.97;;;11.22;67.03
15932;BME280;8065;49.520;11.284;2024-02-23T03:23:50;95558.56;;;11.29;66.86
15932;BME280;8065;49.520;11.284;2024-02-23T03:26:19;95552.44;;;11.21;66.52
15932;BME280;8065;49.520;11.284;2024-02-23T03:28:47;95576.03;;;11.26;66.13
15932;BME280;8065;49.520;11.284;2024-02-23T03:31:16;95572.13;;;11.13;66.13
15932;BME280;8065;49.520;11.284;2024-02-23T03:33:44;95563.75;;;11.11;66.78
15932;BME280;8065;49.520;11.284;2024-02-23T03:36:12;95565.34;;;11.19;66.51
15932;BME280;8065;49.520;11.284;2024-02-23T03:38:41;95575.94;;;11.15;66.32
15932;BME280;8065;49.520;11.284;2024-02-23T03:41:12;95573.47;;;10.93;65.84
15932;BME280;8065;49.520;11.284;2024-02-23T03:43:40;95590.25;;;11.00;65.50
15932;BME280;8065;49.520;11.284;2024-02-23T03:46:08;95586.97;;;10.73;65.86
15932;BME280;8065;49.520;11.284;2024-02-23T03:48:37;95590.69;;;10.65;65.73
15932;BME280;8065;49.520;11.284;2024-02-23T03:51:06;95584.84;;;10.90;64.85
15932;BME280;8065;49.520;11.284;2024-02-23T03:53:34;95586.69;;;10.86;64.89
15932;BME280;8065;49.520;11.284;2024-02-23T03:56:03;95587.09;;;10.88;64.79
15932;BME280;8065;49.520;11.284;2024-02-23T03:58:34;95609.19;;;10.95;64.39
15932;BME280;8065;49.520;11.284;2024-02-23T04:01:03;95609.19;;;10.95;64.25
15932;BME280;8065;49.520;11.284;2024-02-23T04:03:31;95605.44;;;11.00;64.39
15932;BME280;8065;49.520;11.284;2024-02-23T04:05:59;95610.78;;;11.03;64.18
15932;BME280;8065;49.520;11.284;2024-02-23T04:08:28;95594.88;;;11.07;64.25
15932;BME280;8065;49.520;11.284;2024-02-23T04:10:56;95590.47;;;11.25;63.63
15932;BME280;8065;49.520;11.284;2024-02-23T04:13:25;95589.34;;;11.26;63.42
15932;BME280;8065;49.520;11.284;2024-02-23T04:15:56;95598.28;;;11.07;63.50
15932;BME280;8065;49.520;11.284;2024-02-23T04:18:26;95599.44;;;11.10;63.56
15932;BME280;8065;49.520;11.284;2024-02-23T04:20:54;95599.78;;;11.05;63.21
15932;BME280;8065;49.520;11.284;2024-02-23T04:23:22;95607.75;;;11.05;63.60
15932;BME280;8065;49.520;11.284;2024-02-23T04:25:50;95602.84;;;11.07;63.61
15932;BME280;8065;49.520;11.284;2024-02-23T04:28:19;95604.31;;;11.01;63.33
15932;BME280;8065;49.520;11.284;2024-02-23T04:30:48;95603.16;;;10.98;63.45
15932;BME280;8065;49.520;11.284;2024-02-23T04:33:19;95598.19;;;10.97;63.57
15932;BME280;8065;49.520;11.284;2024-02-23T04:35:47;95611.41;;;10.90;63.64
15932;BME280;8065;49.520;11.284;2024-02-23T04:38:15;95621.31;;;10.93;63.51
15932;BME280;8065;49.520;11.284;2024-02-23T04:40:43;95620.84;;;10.83;63.18
15932;BME280;8065;49.520;11.284;2024-02-23T04:43:12;95627.06;;;10.61;63.34
15932;BME280;8065;49.520;11.284;2024-02-23T04:45:40;95621.56;;;10.80;62.96
15932;BME280;8065;49.520;11.284;2024-02-23T04:48:08;95631.06;;;10.81;62.62
15932;BME280;8065;49.520;11.284;2024-02-23T04:50:39;95629.53;;;10.80;62.50
15932;BME280;8065;49.520;11.284;2024-02-23T04:53:08;95647.38;;;10.80;62.55
15932;BME280;8065;49.520;11.284;2024-02-23T04:55:36;95632.88;;;10.74;62.94
15932;BME280;8065;49.520;11.284;2024-02-23T04:58:04;95640.38;;;10.65;62.55
15932;BME280;8065;49.520;11.284;2024-02-23T05:00:32;95636.91;;;10.61;63.05
15932;BME280;8065;49.520;11.284;2024-02-23T05:03:01;95646.13;;;10.70;62.98
15932;BME280;8065;49.520;11.284;2024-02-23T05:05:30;95637.00;;;10.68;63.11
15932;BME280;8065;49.520;11.284;2024-02-23T05:08:01;95658.25;;;10.68;62.73
15932;BME280;8065;49.520;11.284;2024-02-23T05:10:29;95655.94;;;10.66;62.42
15932;BME280;8065;49.520;11.284;2024-02-23T05:12:57;95649.91;;;10.69;62.53
15932;BME280;8065;49.520;11.284;2024-02-23T05:15:25;95645.16;;;10.52;62.66
15932;BME280;8065;49.520;11.284;2024-02-23T05:17:54;95635.34;;;10.56;62.72
15932;BME280;8065;49.520;11.284;2024-02-23T05:20:22;95635.06;;;10.65;62.83
15932;BME280;8065;49.520;11.284;2024-02-23T05:22:50;95637.59;;;10.54;62.46
15932;BME280;8065;49.520;11.284;2024-02-23T05:25:21;95636.97;;;10.64;62.48
15932;BME280;8065;49.520;11.284;2024-02-23T05:27:51;95633.13;;;10.62;62.27
15932;BME280;8065;49.520;11.284;2024-02-23T05:30:19;95624.47;;;10.68;62.10
15932;BME280;8065;49.520;11.284;2024-02-23T05:32:47;95633.91;;;10.62;62.27
15932;BME280;8065;49.520;11.284;2024-02-23T05:35:16;95640.38;;;10.65;62.08
15932;BME280;8065;49.520;11.284;2024-02-23T05:37:44;95634.59;;;10.56;61.78
15932;BME280;8065;49.520;11.284;2024-02-23T05:40:12;95624.81;;;10.63;62.15
15932;BME280;8065;49.520;11.284;2024-02-23T05:42:43;95630.06;;;10.60;62.11
15932;BME280;8065;49.520;11.284;2024-02-23T05:45:12;95630.84;;;10.60;62.26
15932;BME280;8065;49.520;11.284;2024-02-23T05:47:40;95630.84;;;10.60;61.91
15932;BME280;8065;49.520;11.284;2024-02-23T05:50:09;95635.38;;;10.60;62.40
15932;BME280;8065;49.520;11.284;2024-02-23T05:52:37;95633.41;;;10.53;61.78
15932;BME280;8065;49.520;11.284;2024-02-23T05:55:06;95628.50;;;10.55;62.10
15932;BME280;8065;49.520;11.284;2024-02-23T05:57:34;95626.91;;;10.47;61.78
15932;BME280;8065;49.520;11.284;2024-02-23T06:00:06;95631.88;;;10.52;62.36
15932;BME280;8065;49.520;11.284;2024-02-23T06:02:35;95654.06;;;10.67;61.94
15932;BME280;8065;49.520;11.284;2024-02-23T06:05:05;95663.50;;;10.64;62.13
15932;BME280;8065;49.520;11.284;2024-02-23T06:07:33;95670.69;;;10.60;62.22
15932;BME280;8065;49.520;11.284;2024-02-23T06:10:02;95659.00;;;10.68;61.92
15932;BME280;8065;49.520;11.284;2024-02-23T06:12:30;95676.44;;;10.66;62.26
15932;BME280;8065;49.520;11.284;2024-02-23T06:14:59;95684.38;;;10.62;62.56
15932;BME280;8065;49.520;11.284;2024-02-23T06:17:30;95675.59;;;10.58;62.30
15932;BME280;8065;49.520;11.284;2024-02-23T06:19:58;95682.03;;;10.57;62.61
15932;BME280;8065;49.520;11.284;2024-02-23T06:22:26;95678.66;;;10.60;62.44
15932;BME280;8065;49.520;11.284;2024-02-23T06:24:54;95702.88;;;10.55;62.65
15932;BME280;8065;49.520;11.284;2024-02-23T06:27:23;95707.00;;;10.52;62.39
15932;BME280;8065;49.520;11.284;2024-02-23T06:29:53;95716.81;;;10.48;62.41
15932;BME280;8065;49.520;11.284;2024-02-23T06:32:21;95730.75;;;10.42;62.36
15932;BME280;8065;49.520;11.284;2024-02-23T06:34:52;95746.69;;;10.42;63.00
15932;BME280;8065;49.520;11.284;2024-02-23T06:37:20;95741.78;;;10.44;63.10
15932;BME280;8065;49.520;11.284;2024-02-23T06:39:48;95744.44;;;10.44;63.53
15932;BME280;8065;49.520;11.284;2024-02-23T06:42:19;95746.69;;;10.42;63.27
15932;BME280;8065;49.520;11.284;2024-02-23T06:44:48;95728.50;;;10.44;63.61
15932;BME280;8065;49.520;11.284;2024-02-23T06:47:17;95718.44;;;10.27;64.00
15932;BME280;8065;49.520;11.284;2024-02-23T06:49:46;95719.25;;;10.31;64.12
15932;BME280;8065;49.520;11.284;2024-02-23T06:52:17;95717.00;;;10.33;64.19
15932;BME280;8065;49.520;11.284;2024-02-23T06:54:45;95729.06;;;10.27;64.31
15932;BME280;8065;49.520;11.284;2024-02-23T06:57:13;95739.75;;;10.30;64.24
15932;BME280;8065;49.520;11.284;2024-02-23T06:59:42;95740.50;;;10.31;64.36
15932;BME280;8065;49.520;11.284;2024-02-23T07:02:10;95752.66;;;10.32;64.24
15932;BME280;8065;49.520;11.284;2024-02-23T07:04:38;95753.13;;;10.14;65.09
15932;BME280;8065;49.520;11.284;2024-02-23T07:07:06;95759.25;;;10.18;64.96
15932;BME280;8065;49.520;11.284;2024-02-23T07:09:39;95748.63;;;10.18;64.73
15932;BME280;8065;49.520;11.284;2024-02-23T07:12:08;95759.88;;;10.08;65.45
15932;BME280;8065;49.520;11.284;2024-02-23T07:14:38;95751.38;;;9.99;65.96
15932;BME280;8065;49.520;11.284;2024-02-23T07:17:07;95752.16;;;10.00;66.12
15932;BME280;8065;49.520;11.284;2024-02-23T07:19:36;95740.88;;;10.06;65.84
15932;BME280;8065;49.520;11.284;2024-02-23T07:22:04;95740.78;;;9.99;66.49
15932;BME280;8065;49.520;11.284;2024-02-23T07:24:32;95740.16;;;10.09;66.27
15932;BME280;8065;49.520;11.284;2024-02-23T07:27:04;95737.81;;;10.04;66.85
15932;BME280;8065;49.520;11.284;2024-02-23T07:29:32;95728.72;;;10.05;67.08
15932;BME280;8065;49.520;11.284;2024-02-23T07:32:00;95729.03;;;10.00;67.01
15932;BME280;8065;49.520;11.284;2024-02-23T07:34:29;95724.84;;;9.99;67.56
15932;BME280;8065;49.520;11.284;2024-02-23T07:36:57;95714.59;;;9.98;67.84
15932;BME280;8065;49.520;11.284;2024-02-23T07:39:25;95716.59;;;10.04;67.94
15932;BME280;8065;49.520;11.284;2024-02-23T07:41:54;95717.25;;;9.98;68.14
15932;BME280;8065;49.520;11.284;2024-02-23T07:44:24;95721.38;;;9.95;68.12
15932;BME280;8065;49.520;11.284;2024-02-23T07:46:53;95732.50;;;10.04;67.88
15932;BME280;8065;49.520;11.284;2024-02-23T07:49:21;95745.53;;;10.13;67.49
15932;BME280;8065;49.520;11.284;2024-02-23T07:51:50;95754.66;;;10.15;67.82
15932;BME280;8065;49.520;11.284;2024-02-23T07:54:18;95760.38;;;10.17;67.68
15932;BME280;8065;49.520;11.284;2024-02-23T07:56:47;95765.44;;;9.77;69.13
15932;BME280;8065;49.520;11.284;2024-02-23T07:59:15;95778.69;;;10.00;68.50
15932;BME280;8065;49.520;11.284;2024-02-23T08:01:46;95790.88;;;9.59;69.66
15932;BME280;8065;49.520;11.284;2024-02-23T08:04:14;95792.91;;;9.88;69.07
15932;BME280;8065;49.520;11.284;2024-02-23T08:06:43;95787.72;;;9.95;68.60
15932;BME280;8065;49.520;11.284;2024-02-23T08:09:11;95777.97;;;10.03;68.56
15932;BME280;8065;49.520;11.284;2024-02-23T08:11:39;95765.88;;;10.05;68.41
15932;BME280;8065;49.520;11.284;2024-02-23T08:14:08;95739.75;;;10.07;68.50
15932;BME280;8065;49.520;11.284;2024-02-23T08:16:36;95737.91;;;10.11;67.76
15932;BME280;8065;49.520;11.284;2024-02-23T08:19:07;95755.19;;;10.25;67.29
15932;BME280;8065;49.520;11.284;2024-02-23T08:21:36;95760.50;;;10.25;66.96
15932;BME280;8065;49.520;11.284;2024-02-23T08:24:05;95757.97;;;10.32;67.06
15932;BME280;8065;49.520;11.284;2024-02-23T08:26:33;95761.63;;;10.24;67.54
15932;BME280;8065;49.520;11.284;2024-02-23T08:29:03;95767.00;;;10.27;67.23
15932;BME280;8065;49.520;11.284;2024-02-23T08:31:32;95768.53;;;10.28;67.76
15932;BME280;8065;49.520;11.284;2024-02-23T08:34:00;95781.13;;;10.35;67.77
15932;BME280;8065;49.520;11.284;2024-02-23T08:36:31;95788.38;;;10.38;67.66
15932;BME280;8065;49.520;11.284;2024-02-23T08:38:59;95782.34;;;10.41;67.97
15932;BME280;8065;49.520;11.284;2024-02-23T08:41:28;95781.72;;;10.51;67.53
15932;BME280;8065;49.520;11.284;2024-02-23T08:43:56;95779.06;;;10.51;67.55
15932;BME280;8065;49.520;11.284;2024-02-23T08:46:24;95784.47;;;10.58;67.36
15932;BME280;8065;49.520;11.284;2024-02-23T08:48:53;95787.22;;;10.65;67.22
15932;BME280;8065;49.520;11.284;2024-02-23T08:51:21;95791.91;;;10.75;67.01
15932;BME280;8065;49.520;11.284;2024-02-23T08:53:52;95796.88;;;10.77;66.34
15932;BME280;8065;49.520;11.284;2024-02-23T08:56:21;95793.41;;;10.73;66.78
15932;BME280;8065;49.520;11.284;2024-02-23T08:58:50;95794.97;;;10.77;66.74
15932;BME280;8065;49.520;11.284;2024-02-23T09:01:18;95799.88;;;10.75;66.63
15932;BME280;8065;49.520;11.284;2024-02-23T09:03:46;95805.59;;;10.77;66.26
15932;BME280;8065;49.520;11.284;2024-02-23T09:06:14;95803.44;;;10.87;66.40
15932;BME280;8065;49.520;11.284;2024-02-23T09:08:43;95796.69;;;10.93;66.01
15932;BME280;8065;49.520;11.284;2024-02-23T09:11:14;95796.41;;;11.01;65.92
15932;BME280;8065;49.520;11.284;2024-02-23T09:13:42;95801.34;;;10.99;65.74
15932;BME280;8065;49.520;11.284;2024-02-23T09:16:10;95807.22;;;10.86;65.71
15932;BME280;8065;49.520;11.284;2024-02-23T09:18:39;95798.00;;;10.76;65.64
15932;BME280;8065;49.520;11.284;2024-02-23T09:21:08;95792.13;;;10.63;65.82
15932;BME280;8065;49.520;11.284;2024-02-23T09:23:36;95796.06;;;10.46;66.42
15932;BME280;8065;49.520;11.284;2024-02-23T09:26:08;95804.59;;;10.59;65.78
15932;BME280;8065;49.520;11.284;2024-02-23T09:28:39;95828.00;;;10.50;65.80
15932;BME280;8065;49.520;11.284;2024-02-23T09:31:10;95825.03;;;10.55;65.39
15932;BME280;8065;49.520;11.284;2024-02-23T09:33:38;95826.75;;;10.44;64.64
15932;BME280;8065;49.520;11.284;2024-02-23T09:36:07;95818.09;;;10.47;65.14
15932;BME280;8065;49.520;11.284;2024-02-23T09:38:35;95820.66;;;10.40;64.94
15932;BME280;8065;49.520;11.284;2024-02-23T09:41:04;95810.13;;;10.47;64.54
15932;BME280;8065;49.520;11.284;2024-02-23T09:43:33;95810.16;;;10.50;64.70
15932;BME280;8065;49.520;11.284;2024-02-23T09:46:04;95817.38;;;10.50;64.34
15932;BME280;8065;49.520;11.284;2024-02-23T09:48:32;95825.84;;;10.59;64.38
15932;BME280;8065;49.520;11.284;2024-02-23T09:51:04;95837.19;;;10.56;64.46
15932;BME280;8065;49.520;11.284;2024-02-23T09:53:36;95835.59;;;10.51;63.20
15932;BME280;8065;49.520;11.284;2024-02-23T09:56:05;95844.63;;;10.47;62.82
15932;BME280;8065;49.520;11.284;2024-02-23T09:58:34;95854.41;;;10.39;63.23
15932;BME280;8065;49.520;11.284;2024-02-23T10:01:06;95861.19;;;10.37;62.00
15932;BME280;8065;49.520;11.284;2024-02-23T10:03:37;95866.69;;;10.51;61.60
15932;BME280;8065;49.520;11.284;2024-02-23T10:06:06;95872.59;;;10.41;61.50
15932;BME280;8065;49.520;11.284;2024-02-23T10:08:35;95867.75;;;10.46;60.86
15932;BME280;8065;49.520;11.284;2024-02-23T10:11:03;95861.34;;;10.47;59.85
15932;BME280;8065;49.520;11.284;2024-02-23T10:13:32;95853.31;;;10.44;59.78
15932;BME280;8065;49.520;11.284;2024-02-23T10:16:01;95855.31;;;10.50;59.66
15932;BME280;8065;49.520;11.284;2024-02-23T10:18:32;95850.75;;;10.51;59.91
15932;BME280;8065;49.520;11.284;2024-02-23T10:21:00;95854.44;;;10.43;58.89
15932;BME280;8065;49.520;11.284;2024-02-23T10:23:28;95861.34;;;10.47;59.14
15932;BME280;8065;49.520;11.284;2024-02-23T10:25:57;95859.81;;;10.46;58.56
15932;BME280;8065;49.520;11.284;2024-02-23T10:28:25;95855.88;;;10.37;58.34
15932;BME280;8065;49.520;11.284;2024-02-23T10:30:53;95858.44;;;10.56;58.55
15932;BME280;8065;49.520;11.284;2024-02-23T10:33:23;95855.81;;;10.60;58.95
15932;BME280;8065;49.520;11.284;2024-02-23T10:35:56;95850.16;;;10.61;58.29
15932;BME280;8065;49.520;11.284;2024-02-23T10:38:26;95856.50;;;10.79;58.42
15932;BME280;8065;49.520;11.284;2024-02-23T10:40:55;95858.03;;;10.80;58.06
15932;BME280;8065;49.520;11.284;2024-02-23T10:43:30;95860.16;;;10.71;58.07
15932;BME280;8065;49.520;11.284;2024-02-23T10:45:59;95864.91;;;10.85;58.05
15932;BME280;8065;49.520;11.284;2024-02-23T10:48:33;95857.41;;;10.91;58.47
15932;BME280;8065;49.520;11.284;2024-02-23T10:51:06;95854.25;;;10.81;57.94
15932;BME280;8065;49.520;11.284;2024-02-23T10:53:35;95857.50;;;10.98;58.50
15932;BME280;8065;49.520;11.284;2024-02-23T10:56:04;95856.69;;;10.94;58.22
15932;BME280;8065;49.520;11.284;2024-02-23T10:58:33;95856.69;;;10.94;57.50
15932;BME280;8065;49.520;11.284;2024-02-23T11:01:04;95851.28;;;10.87;57.46
15932;BME280;8065;49.520;11.284;2024-02-23T11:03:36;95851.31;;;10.90;57.38
15932;BME280;8065;49.520;11.284;2024-02-23T11:06:08;95842.69;;;10.97;57.25
15932;BME280;8065;49.520;11.284;2024-02-23T11:08:36;95842.59;;;10.90;57.83
15932;BME280;8065;49.520;11.284;2024-02-23T11:11:08;95845.19;;;10.86;58.03
15932;BME280;8065;49.520;11.284;2024-02-23T11:13:37;95862.00;;;10.67;57.61
15932;BME280;8065;49.520;11.284;2024-02-23T11:16:07;95839.84;;;10.82;57.70
15932;BME280;8065;49.520;11.284;2024-02-23T11:18:36;95847.19;;;10.66;56.98
15932;BME280;8065;49.520;11.284;2024-02-23T11:21:08;95850.78;;;10.77;57.38
15932;BME280;8065;49.520;11.284;2024-02-23T11:23:40;95846.06;;;10.94;57.04
15932;BME280;8065;49.520;11.284;2024-02-23T11:26:09;95839.03;;;10.78;56.91
15932;BME280;8065;49.520;11.284;2024-02-23T11:28:47;95839.31;;;10.73;56.78
15932;BME280;8065;49.520;11.284;2024-02-23T11:31:19;95840.97;;;10.81;57.35
15932;BME280;8065;49.520;11.284;2024-02-23T11:33:48;95849.97;;;10.73;56.64
15932;BME280;8065;49.520;11.284;2024-02-23T11:36:29;95835.38;;;10.90;56.80
15932;BME280;8065;49.520;11.284;2024-02-23T11:38:58;95841.09;;;10.92;56.58
15932;BME280;8065;49.520;11.284;2024-02-23T11:41:28;95839.88;;;10.86;56.81
15932;BME280;8065;49.520;11.284;2024-02-23T11:43:57;95820.88;;;10.84;56.93
15932;BME280;8065;49.520;11.284;2024-02-23T11:46:26;95828.69;;;11.00;56.87
15932;BME280;8065;49.520;11.284;2024-02-23T11:48:54;95836.25;;;10.98;57.06
15932;BME280;8065;49.520;11.284;2024-02-23T11:51:25;95836.25;;;10.98;56.76
15932;BME280;8065;49.520;11.284;2024-02-23T11:53:56;95845.28;;;10.93;56.86
15932;BME280;8065;49.520;11.284;2024-02-23T11:56:25;95837.88;;;11.06;56.97
15932;BME280;8065;49.520;11.284;2024-02-23T11:58:54;95831.91;;;11.16;57.00
15932;BME280;8065;49.520;11.284;2024-02-23T12:01:22;95823.66;;;10.95;58.03
15932;BME280;8065;49.520;11.284;2024-02-23T12:03:51;95824.97;;;11.08;57.61
15932;BME280;8065;49.520;11.284;2024-02-23T12:06:20;95818.22;;;11.14;58.14
15932;BME280;8065;49.520;11.284;2024-02-23T12:08:50;95815.28;;;11.23;57.91
15932;BME280;8065;49.520;11.284;2024-02-23T12:11:19;95816.16;;;11.34;57.87
15932;BME280;8065;49.520;11.284;2024-02-23T12:13:47;95810.03;;;11.30;57.85
15932;BME280;8065;49.520;11.284;2024-02-23T12:16:16;95806.97;;;11.28;57.85
15932;BME280;8065;49.520;11.284;2024-02-23T12:18:44;95803.69;;;11.41;57.60
15932;BME280;8065;49.520;11.284;2024-02-23T12:21:13;95799.50;;;11.40;57.91
15932;BME280;8065;49.520;11.284;2024-02-23T12:23:42;95795.19;;;11.25;58.18
15932;BME280;8065;49.520;11.284;2024-02-23T12:26:15;95790.31;;;11.34;58.31
15932;BME280;8065;49.520;11.284;2024-02-23T12:28:44;95801.34;;;11.36;58.32
15932;BME280;8065;49.520;11.284;2024-02-23T12:31:13;95795.91;;;11.22;58.71
15932;BME280;8065;49.520;11.284;2024-02-23T12:33:41;95793.31;;;11.29;58.86
15932;BME280;8065;49.520;11.284;2024-02-23T12:36:13;95798.47;;;11.15;59.78
15932;BME280;8065;49.520;11.284;2024-02-23T12:38:42;95787.94;;;11.22;59.70
15932;BME280;8065;49.520;11.284;2024-02-23T12:41:13;95792.16;;;11.30;60.07
15932;BME280;8065;49.520;11.284;2024-02-23T12:43:42;95799.44;;;11.00;60.29
15932;BME280;8065;49.520;11.284;2024-02-23T12:46:10;95788.66;;;11.19;60.27
15932;BME280;8065;49.520;11.284;2024-02-23T12:48:39;95787.03;;;11.11;60.71
15932;BME280;8065;49.520;11.284;2024-02-23T12:51:08;95787.94;;;11.22;60.90
15932;BME280;8065;49.520;11.284;2024-02-23T12:53:38;95781.25;;;11.39;60.27
15932;BME280;8065;49.520;11.284;2024-02-23T12:56:08;95780.44;;;11.35;60.71
15932;BME280;8065;49.520;11.284;2024-02-23T12:58:40;95772.25;;;11.50;60.45
15932;BME280;8065;49.520;11.284;2024-02-23T13:01:09;95771.13;;;11.52;60.66
15932;BME280;8065;49.520;11.284;2024-02-23T13:03:39;95777.13;;;11.45;61.26
15932;BME280;8065;49.520;11.284;2024-02-23T13:06:08;95776.69;;;11.39;62.39
15932;BME280;8065;49.520;11.284;2024-02-23T13:08:38;95780.47;;;11.38;62.25
15932;BME280;8065;49.520;11.284;2024-02-23T13:11:08;95781.28;;;11.42;62.43